aviador You're here:

LEZL Decoded Metar

SEVILLA in SPAIN
Report Time2017-09-23 21:30:00
UTC Time2017-09-23 21:45:12
Flight Rules vfr VFR
Wind260° at 05 kt
W.Decomp.*RWY 27: 5.0 kt HW 0.7 kt LCW
W.Rank260° ranks 13
Current wind is below 260° avg. (6.3)
Visibility9999 m
Phenomena:N/A
Clouds:N/A
Expected CloudBase > 4,000 ft AGL from Temp-Dew spread
CeilingNone
Temp25°C (ISA +10)
Dew Point15°C (54% RH)
AAT24.8°C
QNH1018 hPa
Density Alt1,345 ft
Elevation102 ft
Report Wrong Elevation
Raw Report
LEZL 232130Z 26005KT CAVOK 25/15 Q1018 NOSIG=

Extra information for LEZL:More info

Metar Taf Metar & Taf Last 4 Metars F.Rules Stats Wind Profile Meteogram Temp Stats Airport Information Weather charts Add Link Nearby VenuesMetar ALERT Operation Metar Decoded Social comments